sensor_id;sensor_type;location;lat;lon;timestamp;temperature;humidity
55560;DHT22;41414;53.250;6.514;2022-12-29T00:01:18;9.50;99.90
55560;DHT22;41414;53.250;6.514;2022-12-29T00:03:47;9.50;99.90
55560;DHT22;41414;53.250;6.514;2022-12-29T00:06:13;9.50;99.90
55560;DHT22;41414;53.250;6.514;2022-12-29T00:08:39;9.60;99.90
55560;DHT22;41414;53.250;6.514;2022-12-29T00:11:07;9.50;99.90
55560;DHT22;41414;53.250;6.514;2022-12-29T00:13:34;9.50;99.90
55560;DHT22;41414;53.250;6.514;2022-12-29T00:16:18;9.60;99.90
55560;DHT22;41414;53.250;6.514;2022-12-29T00:18:44;9.60;99.90
55560;DHT22;41414;53.250;6.514;2022-12-29T00:21:15;9.60;99.90
55560;DHT22;41414;53.250;6.514;2022-12-29T00:24:00;9.70;99.90
55560;DHT22;41414;53.250;6.514;2022-12-29T00:26:45;9.70;99.90
55560;DHT22;41414;53.250;6.514;2022-12-29T00:29:30;9.80;99.90
55560;DHT22;41414;53.250;6.514;2022-12-29T00:32:14;9.80;99.90
55560;DHT22;41414;53.250;6.514;2022-12-29T00:34:58;9.80;99.90
55560;DHT22;41414;53.250;6.514;2022-12-29T00:37:42;9.80;99.90
55560;DHT22;41414;53.250;6.514;2022-12-29T00:40:27;9.90;99.90
55560;DHT22;41414;53.250;6.514;2022-12-29T00:43:12;9.90;99.90
55560;DHT22;41414;53.250;6.514;2022-12-29T00:45:56;9.90;99.90
55560;DHT22;41414;53.250;6.514;2022-12-29T00:48:22;9.90;99.90
55560;DHT22;41414;53.250;6.514;2022-12-29T00:51:07;9.90;99.90
55560;DHT22;41414;53.250;6.514;2022-12-29T00:53:34;9.90;99.90
55560;DHT22;41414;53.250;6.514;2022-12-29T00:56:00;10.00;99.90
55560;DHT22;41414;53.250;6.514;2022-12-29T00:58:28;10.00;99.90
55560;DHT22;41414;53.250;6.514;2022-12-29T01:01:03;10.00;99.90
55560;DHT22;41414;53.250;6.514;2022-12-29T01:03:29;10.00;99.90
55560;DHT22;41414;53.250;6.514;2022-12-29T01:05:55;10.10;99.90
55560;DHT22;41414;53.250;6.514;2022-12-29T01:08:21;10.10;99.90
55560;DHT22;41414;53.250;6.514;2022-12-29T01:10:59;10.10;99.90
55560;DHT22;41414;53.250;6.514;2022-12-29T01:13:25;10.20;99.90
55560;DHT22;41414;53.250;6.514;2022-12-29T01:15:52;10.10;99.90
55560;DHT22;41414;53.250;6.514;2022-12-29T01:18:17;10.10;99.90
55560;DHT22;41414;53.250;6.514;2022-12-29T01:20:43;10.10;99.90
55560;DHT22;41414;53.250;6.514;2022-12-29T01:23:09;10.10;99.90
55560;DHT22;41414;53.250;6.514;2022-12-29T01:25:35;10.10;99.90
55560;DHT22;41414;53.250;6.514;2022-12-29T01:28:01;10.20;99.90
55560;DHT22;41414;53.250;6.514;2022-12-29T01:30:27;10.20;99.90
55560;DHT22;41414;53.250;6.514;2022-12-29T01:32:52;10.20;99.90
55560;DHT22;41414;53.250;6.514;2022-12-29T01:35:18;10.20;99.90
55560;DHT22;41414;53.250;6.514;2022-12-29T01:37:44;10.10;99.90
55560;DHT22;41414;53.250;6.514;2022-12-29T01:40:10;10.10;99.90
55560;DHT22;41414;53.250;6.514;2022-12-29T01:42:36;10.10;99.90
55560;DHT22;41414;53.250;6.514;2022-12-29T01:45:09;10.10;99.90
55560;DHT22;41414;53.250;6.514;2022-12-29T01:47:40;10.10;99.90
55560;DHT22;41414;53.250;6.514;2022-12-29T01:52:35;10.00;99.90
55560;DHT22;41414;53.250;6.514;2022-12-29T01:55:02;10.00;99.90
55560;DHT22;41414;53.250;6.514;2022-12-29T01:57:33;10.00;99.90
55560;DHT22;41414;53.250;6.514;2022-12-29T02:00:03;9.90;99.90
55560;DHT22;41414;53.250;6.514;2022-12-29T02:02:30;9.90;99.90
55560;DHT22;41414;53.250;6.514;2022-12-29T02:04:58;9.80;99.90
55560;DHT22;41414;53.250;6.514;2022-12-29T02:07:26;9.80;99.90
55560;DHT22;41414;53.250;6.514;2022-12-29T02:09:54;9.80;99.90
55560;DHT22;41414;53.250;6.514;2022-12-29T02:12:21;9.80;99.90
55560;DHT22;41414;53.250;6.514;2022-12-29T02:14:54;9.80;99.90
55560;DHT22;41414;53.250;6.514;2022-12-29T02:20:37;9.80;99.90
55560;DHT22;41414;53.250;6.514;2022-12-29T02:28:44;9.70;99.90
55560;DHT22;41414;53.250;6.514;2022-12-29T02:31:37;9.70;99.90
55560;DHT22;41414;53.250;6.514;2022-12-29T02:34:26;9.70;99.90
55560;DHT22;41414;53.250;6.514;2022-12-29T02:37:21;9.80;99.90
55560;DHT22;41414;53.250;6.514;2022-12-29T02:42:49;9.70;99.90
55560;DHT22;41414;53.250;6.514;2022-12-29T02:45:35;9.70;99.90
55560;DHT22;41414;53.250;6.514;2022-12-29T02:48:20;9.80;99.90
55560;DHT22;41414;53.250;6.514;2022-12-29T02:51:03;9.80;99.90
55560;DHT22;41414;53.250;6.514;2022-12-29T02:53:32;9.70;99.90
55560;DHT22;41414;53.250;6.514;2022-12-29T02:56:17;9.70;99.90
55560;DHT22;41414;53.250;6.514;2022-12-29T02:58:43;9.80;99.90
55560;DHT22;41414;53.250;6.514;2022-12-29T03:04:19;9.80;99.90
55560;DHT22;41414;53.250;6.514;2022-12-29T03:06:56;9.80;99.90
55560;DHT22;41414;53.250;6.514;2022-12-29T03:09:36;9.80;99.90
55560;DHT22;41414;53.250;6.514;2022-12-29T03:12:11;9.80;99.90
55560;DHT22;41414;53.250;6.514;2022-12-29T03:14:48;9.80;99.90
55560;DHT22;41414;53.250;6.514;2022-12-29T03:17:41;9.80;99.90
55560;DHT22;41414;53.250;6.514;2022-12-29T03:20:12;9.80;99.90
55560;DHT22;41414;53.250;6.514;2022-12-29T03:22:42;9.80;99.90
55560;DHT22;41414;53.250;6.514;2022-12-29T03:25:15;9.80;99.90
55560;DHT22;41414;53.250;6.514;2022-12-29T03:27:49;9.80;99.90
55560;DHT22;41414;53.250;6.514;2022-12-29T03:30:16;9.80;99.90
55560;DHT22;41414;53.250;6.514;2022-12-29T03:32:46;9.80;99.90
55560;DHT22;41414;53.250;6.514;2022-12-29T03:35:15;9.90;99.90
55560;DHT22;41414;53.250;6.514;2022-12-29T03:37:49;9.80;99.90
55560;DHT22;41414;53.250;6.514;2022-12-29T03:40:19;9.80;99.90
55560;DHT22;41414;53.250;6.514;2022-12-29T03:42:47;9.80;99.90
55560;DHT22;41414;53.250;6.514;2022-12-29T03:45:13;9.70;99.90
55560;DHT22;41414;53.250;6.514;2022-12-29T03:47:39;9.70;99.90
55560;DHT22;41414;53.250;6.514;2022-12-29T03:50:06;9.70;99.90
55560;DHT22;41414;53.250;6.514;2022-12-29T03:52:34;9.70;99.90
55560;DHT22;41414;53.250;6.514;2022-12-29T03:55:00;9.70;99.90
55560;DHT22;41414;53.250;6.514;2022-12-29T03:57:25;9.70;99.90
55560;DHT22;41414;53.250;6.514;2022-12-29T03:59:51;9.60;99.90
55560;DHT22;41414;53.250;6.514;2022-12-29T04:02:17;9.60;99.90
55560;DHT22;41414;53.250;6.514;2022-12-29T04:04:43;9.60;99.90
55560;DHT22;41414;53.250;6.514;2022-12-29T04:07:09;9.60;99.90
55560;DHT22;41414;53.250;6.514;2022-12-29T04:09:35;9.60;99.90
55560;DHT22;41414;53.250;6.514;2022-12-29T04:12:00;9.60;99.90
55560;DHT22;41414;53.250;6.514;2022-12-29T04:14:26;9.60;99.90
55560;DHT22;41414;53.250;6.514;2022-12-29T04:16:52;9.60;99.90
55560;DHT22;41414;53.250;6.514;2022-12-29T04:19:18;9.60;99.90
55560;DHT22;41414;53.250;6.514;2022-12-29T04:21:44;9.60;99.90
55560;DHT22;41414;53.250;6.514;2022-12-29T04:24:09;9.70;99.90
55560;DHT22;41414;53.250;6.514;2022-12-29T04:26:35;9.70;99.90
55560;DHT22;41414;53.250;6.514;2022-12-29T04:29:01;9.80;99.90
55560;DHT22;41414;53.250;6.514;2022-12-29T04:31:27;9.80;99.90
55560;DHT22;41414;53.250;6.514;2022-12-29T04:33:53;9.80;99.90
55560;DHT22;41414;53.250;6.514;2022-12-29T04:36:18;9.90;99.90
55560;DHT22;41414;53.250;6.514;2022-12-29T04:38:44;9.90;99.90
55560;DHT22;41414;53.250;6.514;2022-12-29T04:41:10;9.90;99.90
55560;DHT22;41414;53.250;6.514;2022-12-29T04:43:36;9.90;99.90
55560;DHT22;41414;53.250;6.514;2022-12-29T04:46:02;9.90;99.90
55560;DHT22;41414;53.250;6.514;2022-12-29T04:48:27;9.90;99.90
55560;DHT22;41414;53.250;6.514;2022-12-29T04:50:53;9.90;99.90
55560;DHT22;41414;53.250;6.514;2022-12-29T04:53:19;9.90;99.90
55560;DHT22;41414;53.250;6.514;2022-12-29T04:55:49;9.80;99.90
55560;DHT22;41414;53.250;6.514;2022-12-29T04:58:15;9.80;99.90
55560;DHT22;41414;53.250;6.514;2022-12-29T05:00:41;9.80;99.90
55560;DHT22;41414;53.250;6.514;2022-12-29T05:03:07;9.70;99.90
55560;DHT22;41414;53.250;6.514;2022-12-29T05:05:33;9.70;99.90
55560;DHT22;41414;53.250;6.514;2022-12-29T05:07:59;9.70;99.90
55560;DHT22;41414;53.250;6.514;2022-12-29T05:10:24;9.70;99.90
55560;DHT22;41414;53.250;6.514;2022-12-29T05:12:51;9.70;99.90
55560;DHT22;41414;53.250;6.514;2022-12-29T05:15:16;9.70;99.90
55560;DHT22;41414;53.250;6.514;2022-12-29T05:17:42;9.70;99.90
55560;DHT22;41414;53.250;6.514;2022-12-29T05:20:09;9.70;99.90
55560;DHT22;41414;53.250;6.514;2022-12-29T05:22:35;9.60;99.90
55560;DHT22;41414;53.250;6.514;2022-12-29T05:25:01;9.60;99.90
55560;DHT22;41414;53.250;6.514;2022-12-29T05:27:27;9.60;99.90
55560;DHT22;41414;53.250;6.514;2022-12-29T05:29:53;9.60;99.90
55560;DHT22;41414;53.250;6.514;2022-12-29T05:32:18;9.60;99.90
55560;DHT22;41414;53.250;6.514;2022-12-29T05:34:44;9.60;99.90
55560;DHT22;41414;53.250;6.514;2022-12-29T05:37:10;9.60;99.90
55560;DHT22;41414;53.250;6.514;2022-12-29T05:39:36;9.60;99.90
55560;DHT22;41414;53.250;6.514;2022-12-29T05:42:02;9.60;99.90
55560;DHT22;41414;53.250;6.514;2022-12-29T05:44:28;9.50;99.90
55560;DHT22;41414;53.250;6.514;2022-12-29T05:46:53;9.50;99.90
55560;DHT22;41414;53.250;6.514;2022-12-29T05:49:19;9.50;99.90
55560;DHT22;41414;53.250;6.514;2022-12-29T05:51:45;9.50;99.90
55560;DHT22;41414;53.250;6.514;2022-12-29T05:54:11;9.50;99.90
55560;DHT22;41414;53.250;6.514;2022-12-29T05:56:37;9.50;99.90
55560;DHT22;41414;53.250;6.514;2022-12-29T05:59:03;9.50;99.90
55560;DHT22;41414;53.250;6.514;2022-12-29T06:01:28;9.60;99.90
55560;DHT22;41414;53.250;6.514;2022-12-29T06:03:54;9.70;99.90
55560;DHT22;41414;53.250;6.514;2022-12-29T06:06:20;9.70;99.90
55560;DHT22;41414;53.250;6.514;2022-12-29T06:08:46;9.70;99.90
55560;DHT22;41414;53.250;6.514;2022-12-29T06:11:12;9.60;99.90
55560;DHT22;41414;53.250;6.514;2022-12-29T06:13:38;9.60;99.90
55560;DHT22;41414;53.250;6.514;2022-12-29T06:16:04;9.60;99.90
55560;DHT22;41414;53.250;6.514;2022-12-29T06:18:30;9.60;99.90
55560;DHT22;41414;53.250;6.514;2022-12-29T06:21:00;9.60;99.90
55560;DHT22;41414;53.250;6.514;2022-12-29T06:23:26;9.70;99.90
55560;DHT22;41414;53.250;6.514;2022-12-29T06:25:52;9.70;99.90
55560;DHT22;41414;53.250;6.514;2022-12-29T06:28:18;9.60;99.90
55560;DHT22;41414;53.250;6.514;2022-12-29T06:30:45;9.60;99.90
55560;DHT22;41414;53.250;6.514;2022-12-29T06:33:12;9.60;99.90
55560;DHT22;41414;53.250;6.514;2022-12-29T06:35:38;9.60;99.90
55560;DHT22;41414;53.250;6.514;2022-12-29T06:38:04;9.60;99.90
55560;DHT22;41414;53.250;6.514;2022-12-29T06:40:31;9.60;99.90
55560;DHT22;41414;53.250;6.514;2022-12-29T06:42:57;9.50;99.90
55560;DHT22;41414;53.250;6.514;2022-12-29T06:45:23;9.60;99.90
55560;DHT22;41414;53.250;6.514;2022-12-29T06:47:48;9.60;99.90
55560;DHT22;41414;53.250;6.514;2022-12-29T06:50:14;9.60;99.90
55560;DHT22;41414;53.250;6.514;2022-12-29T06:52:40;9.50;99.90
55560;DHT22;41414;53.250;6.514;2022-12-29T06:55:06;9.50;99.90
55560;DHT22;41414;53.250;6.514;2022-12-29T06:57:32;9.50;99.90
55560;DHT22;41414;53.250;6.514;2022-12-29T06:59:58;9.40;99.90
55560;DHT22;41414;53.250;6.514;2022-12-29T07:02:24;9.40;99.90
55560;DHT22;41414;53.250;6.514;2022-12-29T07:04:52;9.00;99.90
55560;DHT22;41414;53.250;6.514;2022-12-29T07:07:19;9.30;99.90
55560;DHT22;41414;53.250;6.514;2022-12-29T07:09:46;9.40;99.90
55560;DHT22;41414;53.250;6.514;2022-12-29T07:12:12;9.40;99.90
55560;DHT22;41414;53.250;6.514;2022-12-29T07:14:38;9.50;99.90
55560;DHT22;41414;53.250;6.514;2022-12-29T07:17:05;9.40;99.90
55560;DHT22;41414;53.250;6.514;2022-12-29T07:19:32;9.40;99.90
55560;DHT22;41414;53.250;6.514;2022-12-29T07:21:58;9.40;99.90
55560;DHT22;41414;53.250;6.514;2022-12-29T07:24:25;9.40;99.90
55560;DHT22;41414;53.250;6.514;2022-12-29T07:26:52;9.40;99.90
55560;DHT22;41414;53.250;6.514;2022-12-29T07:29:18;9.40;99.90
55560;DHT22;41414;53.250;6.514;2022-12-29T07:31:44;9.50;99.90
55560;DHT22;41414;53.250;6.514;2022-12-29T07:34:10;9.50;99.90
55560;DHT22;41414;53.250;6.514;2022-12-29T07:36:36;9.50;99.90
55560;DHT22;41414;53.250;6.514;2022-12-29T07:39:02;9.50;99.90
55560;DHT22;41414;53.250;6.514;2022-12-29T07:41:28;9.60;99.90
55560;DHT22;41414;53.250;6.514;2022-12-29T07:43:54;9.60;99.90
55560;DHT22;41414;53.250;6.514;2022-12-29T07:46:20;9.60;99.90
55560;DHT22;41414;53.250;6.514;2022-12-29T07:48:46;9.60;99.90
55560;DHT22;41414;53.250;6.514;2022-12-29T07:51:12;9.70;99.90
55560;DHT22;41414;53.250;6.514;2022-12-29T07:53:37;9.70;99.90
55560;DHT22;41414;53.250;6.514;2022-12-29T07:56:03;9.70;99.90
55560;DHT22;41414;53.250;6.514;2022-12-29T07:58:29;9.70;99.90
55560;DHT22;41414;53.250;6.514;2022-12-29T08:00:56;9.70;99.90
55560;DHT22;41414;53.250;6.514;2022-12-29T08:03:23;9.70;99.90
55560;DHT22;41414;53.250;6.514;2022-12-29T08:05:49;9.70;99.90
55560;DHT22;41414;53.250;6.514;2022-12-29T08:08:15;9.70;99.90
55560;DHT22;41414;53.250;6.514;2022-12-29T08:10:41;9.60;99.90
55560;DHT22;41414;53.250;6.514;2022-12-29T08:13:07;9.60;99.90
55560;DHT22;41414;53.250;6.514;2022-12-29T08:15:33;9.60;99.90
55560;DHT22;41414;53.250;6.514;2022-12-29T08:17:58;9.60;99.90
55560;DHT22;41414;53.250;6.514;2022-12-29T08:20:24;9.60;99.90
55560;DHT22;41414;53.250;6.514;2022-12-29T08:22:51;9.60;99.90
55560;DHT22;41414;53.250;6.514;2022-12-29T08:25:17;9.60;99.90
55560;DHT22;41414;53.250;6.514;2022-12-29T08:27:43;9.60;99.90
55560;DHT22;41414;53.250;6.514;2022-12-29T08:30:09;9.60;99.90
55560;DHT22;41414;53.250;6.514;2022-12-29T08:32:35;9.60;99.90
55560;DHT22;41414;53.250;6.514;2022-12-29T08:35:01;9.70;99.90
55560;DHT22;41414;53.250;6.514;2022-12-29T08:37:27;9.60;99.90
55560;DHT22;41414;53.250;6.514;2022-12-29T08:39:53;9.50;99.90
55560;DHT22;41414;53.250;6.514;2022-12-29T08:42:19;9.30;99.90
55560;DHT22;41414;53.250;6.514;2022-12-29T08:44:45;9.00;99.90
55560;DHT22;41414;53.250;6.514;2022-12-29T08:47:11;8.90;99.90
55560;DHT22;41414;53.250;6.514;2022-12-29T08:49:37;8.80;99.90
55560;DHT22;41414;53.250;6.514;2022-12-29T08:52:03;8.80;99.90
55560;DHT22;41414;53.250;6.514;2022-12-29T08:54:29;8.90;99.90
55560;DHT22;41414;53.250;6.514;2022-12-29T08:56:55;9.00;99.90
55560;DHT22;41414;53.250;6.514;2022-12-29T08:59:21;9.00;99.90
55560;DHT22;41414;53.250;6.514;2022-12-29T09:01:47;9.00;99.90
55560;DHT22;41414;53.250;6.514;2022-12-29T09:04:13;9.00;99.90
55560;DHT22;41414;53.250;6.514;2022-12-29T09:06:39;9.10;99.90
55560;DHT22;41414;53.250;6.514;2022-12-29T09:09:05;9.20;99.90
55560;DHT22;41414;53.250;6.514;2022-12-29T09:11:30;9.20;99.90
55560;DHT22;41414;53.250;6.514;2022-12-29T09:13:57;9.20;99.90
55560;DHT22;41414;53.250;6.514;2022-12-29T09:16:23;9.00;99.90
55560;DHT22;41414;53.250;6.514;2022-12-29T09:18:49;8.90;99.90
55560;DHT22;41414;53.250;6.514;2022-12-29T09:21:16;8.80;99.90
55560;DHT22;41414;53.250;6.514;2022-12-29T09:23:42;8.70;99.90
55560;DHT22;41414;53.250;6.514;2022-12-29T09:26:08;8.60;99.90
55560;DHT22;41414;53.250;6.514;2022-12-29T09:28:34;8.60;99.90
55560;DHT22;41414;53.250;6.514;2022-12-29T09:31:00;8.60;99.90
55560;DHT22;41414;53.250;6.514;2022-12-29T09:33:27;8.70;99.90
55560;DHT22;41414;53.250;6.514;2022-12-29T09:35:56;8.80;99.90
55560;DHT22;41414;53.250;6.514;2022-12-29T09:38:23;8.90;99.90
55560;DHT22;41414;53.250;6.514;2022-12-29T09:40:52;8.90;99.90
55560;DHT22;41414;53.250;6.514;2022-12-29T09:44:13;8.80;99.90
55560;DHT22;41414;53.250;6.514;2022-12-29T09:46:44;8.80;99.90
55560;DHT22;41414;53.250;6.514;2022-12-29T09:49:40;8.80;99.90
55560;DHT22;41414;53.250;6.514;2022-12-29T09:52:20;8.70;99.90
55560;DHT22;41414;53.250;6.514;2022-12-29T09:54:57;8.60;99.90
55560;DHT22;41414;53.250;6.514;2022-12-29T09:57:27;8.50;99.90
55560;DHT22;41414;53.250;6.514;2022-12-29T09:59:59;8.50;99.90
55560;DHT22;41414;53.250;6.514;2022-12-29T10:02:34;8.50;99.90
55560;DHT22;41414;53.250;6.514;2022-12-29T10:05:02;8.60;99.90
55560;DHT22;41414;53.250;6.514;2022-12-29T10:10:16;8.50;99.90
55560;DHT22;41414;53.250;6.514;2022-12-29T10:12:54;8.50;99.90
55560;DHT22;41414;53.250;6.514;2022-12-29T10:15:43;8.50;99.90
55560;DHT22;41414;53.250;6.514;2022-12-29T10:20:58;8.40;99.90
55560;DHT22;41414;53.250;6.514;2022-12-29T10:23:29;8.40;99.90
55560;DHT22;41414;53.250;6.514;2022-12-29T10:25:58;8.40;99.90
55560;DHT22;41414;53.250;6.514;2022-12-29T10:28:47;8.30;99.90
55560;DHT22;41414;53.250;6.514;2022-12-29T10:31:22;8.30;99.90
55560;DHT22;41414;53.250;6.514;2022-12-29T10:33:54;8.30;99.90
55560;DHT22;41414;53.250;6.514;2022-12-29T10:36:34;8.30;99.90
55560;DHT22;41414;53.250;6.514;2022-12-29T10:41:39;8.30;99.90
55560;DHT22;41414;53.250;6.514;2022-12-29T10:44:10;8.30;99.90
55560;DHT22;41414;53.250;6.514;2022-12-29T10:46:39;8.30;99.90
55560;DHT22;41414;53.250;6.514;2022-12-29T10:49:13;8.30;99.90
55560;DHT22;41414;53.250;6.514;2022-12-29T10:51:42;8.40;99.90
55560;DHT22;41414;53.250;6.514;2022-12-29T10:54:26;8.40;99.90
55560;DHT22;41414;53.250;6.514;2022-12-29T10:57:02;8.50;99.90
55560;DHT22;41414;53.250;6.514;2022-12-29T10:59:31;8.50;99.90
55560;DHT22;41414;53.250;6.514;2022-12-29T11:04:47;8.50;99.90
55560;DHT22;41414;53.250;6.514;2022-12-29T11:07:18;8.50;99.90
55560;DHT22;41414;53.250;6.514;2022-12-29T11:09:46;8.60;99.90
55560;DHT22;41414;53.250;6.514;2022-12-29T11:14:44;8.60;99.90
55560;DHT22;41414;53.250;6.514;2022-12-29T11:17:15;8.60;99.90
55560;DHT22;41414;53.250;6.514;2022-12-29T11:19:42;8.60;99.90
55560;DHT22;41414;53.250;6.514;2022-12-29T11:24:47;8.70;99.90
55560;DHT22;41414;53.250;6.514;2022-12-29T11:27:18;8.70;99.90
55560;DHT22;41414;53.250;6.514;2022-12-29T11:29:46;8.70;99.90
55560;DHT22;41414;53.250;6.514;2022-12-29T11:32:19;8.70;99.90
55560;DHT22;41414;53.250;6.514;2022-12-29T11:34:46;8.80;99.90
55560;DHT22;41414;53.250;6.514;2022-12-29T11:37:18;8.80;99.90
55560;DHT22;41414;53.250;6.514;2022-12-29T11:39:56;8.90;99.90
55560;DHT22;41414;53.250;6.514;2022-12-29T11:42:32;8.90;99.90
55560;DHT22;41414;53.250;6.514;2022-12-29T11:45:15;8.90;99.90
55560;DHT22;41414;53.250;6.514;2022-12-29T11:47:45;8.90;99.90
55560;DHT22;41414;53.250;6.514;2022-12-29T11:50:25;8.90;99.90
55560;DHT22;41414;53.250;6.514;2022-12-29T11:53:00;8.90;99.90
55560;DHT22;41414;53.250;6.514;2022-12-29T11:55:27;9.00;99.90
55560;DHT22;41414;53.250;6.514;2022-12-29T11:57:56;9.00;99.90
55560;DHT22;41414;53.250;6.514;2022-12-29T12:00:24;9.00;99.90
55560;DHT22;41414;53.250;6.514;2022-12-29T12:03:03;9.00;99.90
55560;DHT22;41414;53.250;6.514;2022-12-29T12:05:49;9.00;99.90
55560;DHT22;41414;53.250;6.514;2022-12-29T12:11:09;8.80;99.90
55560;DHT22;41414;53.250;6.514;2022-12-29T12:14:00;8.70;99.90
55560;DHT22;41414;53.250;6.514;2022-12-29T12:16:36;8.60;99.90
55560;DHT22;41414;53.250;6.514;2022-12-29T12:21:56;8.60;99.90
55560;DHT22;41414;53.250;6.514;2022-12-29T12:24:34;8.60;99.90
55560;DHT22;41414;53.250;6.514;2022-12-29T12:27:18;9.10;99.90
55560;DHT22;41414;53.250;6.514;2022-12-29T12:30:04;8.80;99.90
55560;DHT22;41414;53.250;6.514;2022-12-29T12:32:46;8.80;99.90
55560;DHT22;41414;53.250;6.514;2022-12-29T12:35:16;8.90;99.90
55560;DHT22;41414;53.250;6.514;2022-12-29T12:38:01;9.10;99.90
55560;DHT22;41414;53.250;6.514;2022-12-29T12:40:39;9.10;99.90
55560;DHT22;41414;53.250;6.514;2022-12-29T12:46:11;9.00;99.90
55560;DHT22;41414;53.250;6.514;2022-12-29T12:56:57;9.00;99.90
55560;DHT22;41414;53.250;6.514;2022-12-29T13:02:33;9.10;99.90
55560;DHT22;41414;53.250;6.514;2022-12-29T13:10:57;9.70;99.90
55560;DHT22;41414;53.250;6.514;2022-12-29T13:16:21;10.20;99.90
55560;DHT22;41414;53.250;6.514;2022-12-29T13:19:02;10.40;99.90
55560;DHT22;41414;53.250;6.514;2022-12-29T13:24:25;10.00;99.90
55560;DHT22;41414;53.250;6.514;2022-12-29T13:29:38;9.70;99.90
55560;DHT22;41414;53.250;6.514;2022-12-29T13:37:52;9.90;99.90
55560;DHT22;41414;53.250;6.514;2022-12-29T13:40:24;9.80;99.90
55560;DHT22;41414;53.250;6.514;2022-12-29T13:42:51;9.70;99.90
55560;DHT22;41414;53.250;6.514;2022-12-29T13:45:22;9.50;99.90
55560;DHT22;41414;53.250;6.514;2022-12-29T13:50:36;9.40;99.90
55560;DHT22;41414;53.250;6.514;2022-12-29T13:53:18;9.30;99.90
55560;DHT22;41414;53.250;6.514;2022-12-29T13:56:02;9.20;99.90
55560;DHT22;41414;53.250;6.514;2022-12-29T13:58:41;9.20;99.90
55560;DHT22;41414;53.250;6.514;2022-12-29T14:01:22;9.30;99.90
55560;DHT22;41414;53.250;6.514;2022-12-29T14:03:52;9.40;99.90
55560;DHT22;41414;53.250;6.514;2022-12-29T14:06:26;9.50;99.90
55560;DHT22;41414;53.250;6.514;2022-12-29T14:09:00;9.80;99.90
55560;DHT22;41414;53.250;6.514;2022-12-29T14:11:35;10.00;99.90
55560;DHT22;41414;53.250;6.514;2022-12-29T14:14:27;10.10;99.90
55560;DHT22;41414;53.250;6.514;2022-12-29T14:16:54;10.10;99.90
55560;DHT22;41414;53.250;6.514;2022-12-29T14:19:28;9.90;99.90
55560;DHT22;41414;53.250;6.514;2022-12-29T14:21:59;9.70;99.90
55560;DHT22;41414;53.250;6.514;2022-12-29T14:35:00;9.30;99.90
55560;DHT22;41414;53.250;6.514;2022-12-29T14:37:30;9.20;99.90
55560;DHT22;41414;53.250;6.514;2022-12-29T14:40:17;9.10;99.90
55560;DHT22;41414;53.250;6.514;2022-12-29T14:42:45;9.10;99.90
55560;DHT22;41414;53.250;6.514;2022-12-29T14:47:41;8.80;99.90
55560;DHT22;41414;53.250;6.514;2022-12-29T14:50:15;8.80;99.90
55560;DHT22;41414;53.250;6.514;2022-12-29T14:52:55;8.80;99.90
55560;DHT22;41414;53.250;6.514;2022-12-29T14:55:41;8.70;99.90
55560;DHT22;41414;53.250;6.514;2022-12-29T14:58:18;8.70;99.90
55560;DHT22;41414;53.250;6.514;2022-12-29T15:00:46;8.60;99.90
55560;DHT22;41414;53.250;6.514;2022-12-29T15:03:25;8.60;99.90
55560;DHT22;41414;53.250;6.514;2022-12-29T15:05:59;8.50;99.90
55560;DHT22;41414;53.250;6.514;2022-12-29T15:08:35;8.50;99.90
55560;DHT22;41414;53.250;6.514;2022-12-29T15:11:09;8.50;99.90
55560;DHT22;41414;53.250;6.514;2022-12-29T15:13:40;8.40;99.90
55560;DHT22;41414;53.250;6.514;2022-12-29T15:16:30;8.40;99.90
55560;DHT22;41414;53.250;6.514;2022-12-29T15:18:56;8.40;99.90
55560;DHT22;41414;53.250;6.514;2022-12-29T15:21:26;8.40;99.90
55560;DHT22;41414;53.250;6.514;2022-12-29T15:23:52;8.40;99.90
55560;DHT22;41414;53.250;6.514;2022-12-29T15:26:18;8.40;99.90
55560;DHT22;41414;53.250;6.514;2022-12-29T15:28:49;8.30;99.90
55560;DHT22;41414;53.250;6.514;2022-12-29T15:31:19;8.30;99.90
55560;DHT22;41414;53.250;6.514;2022-12-29T15:33:48;8.30;99.90
55560;DHT22;41414;53.250;6.514;2022-12-29T15:36:21;8.30;99.90
55560;DHT22;41414;53.250;6.514;2022-12-29T15:38:48;8.30;99.90
55560;DHT22;41414;53.250;6.514;2022-12-29T15:41:35;8.30;99.90
55560;DHT22;41414;53.250;6.514;2022-12-29T15:44:32;8.20;99.90
55560;DHT22;41414;53.250;6.514;2022-12-29T15:47:04;8.10;99.90
55560;DHT22;41414;53.250;6.514;2022-12-29T15:49:30;8.20;99.90
55560;DHT22;41414;53.250;6.514;2022-12-29T15:51:57;8.20;99.90
55560;DHT22;41414;53.250;6.514;2022-12-29T15:54:24;8.20;99.90
55560;DHT22;41414;53.250;6.514;2022-12-29T15:56:51;8.20;99.90
55560;DHT22;41414;53.250;6.514;2022-12-29T15:59:29;8.20;99.90
55560;DHT22;41414;53.250;6.514;2022-12-29T16:01:56;8.20;99.90
55560;DHT22;41414;53.250;6.514;2022-12-29T16:04:23;8.20;99.90
55560;DHT22;41414;53.250;6.514;2022-12-29T16:06:58;8.20;99.90
55560;DHT22;41414;53.250;6.514;2022-12-29T16:09:34;8.20;99.90
55560;DHT22;41414;53.250;6.514;2022-12-29T16:12:05;8.20;99.90
55560;DHT22;41414;53.250;6.514;2022-12-29T16:14:40;8.20;99.90
55560;DHT22;41414;53.250;6.514;2022-12-29T16:17:09;8.20;99.90
55560;DHT22;41414;53.250;6.514;2022-12-29T16:19:39;8.00;99.90
55560;DHT22;41414;53.250;6.514;2022-12-29T16:22:26;7.90;99.90
55560;DHT22;41414;53.250;6.514;2022-12-29T16:24:57;7.80;99.90
55560;DHT22;41414;53.250;6.514;2022-12-29T16:27:32;7.70;99.90
55560;DHT22;41414;53.250;6.514;2022-12-29T16:30:05;7.50;99.90
55560;DHT22;41414;53.250;6.514;2022-12-29T16:32:31;7.40;99.90
55560;DHT22;41414;53.250;6.514;2022-12-29T16:35:11;7.40;99.90
55560;DHT22;41414;53.250;6.514;2022-12-29T16:37:37;7.40;99.90
55560;DHT22;41414;53.250;6.514;2022-12-29T16:47:47;7.20;99.90
55560;DHT22;41414;53.250;6.514;2022-12-29T16:50:17;7.10;99.90
55560;DHT22;41414;53.250;6.514;2022-12-29T16:52:49;7.10;99.90
55560;DHT22;41414;53.250;6.514;2022-12-29T16:55:17;7.00;99.90
55560;DHT22;41414;53.250;6.514;2022-12-29T16:57:43;7.00;99.90
55560;DHT22;41414;53.250;6.514;2022-12-29T17:00:21;6.90;99.90
55560;DHT22;41414;53.250;6.514;2022-12-29T17:02:50;6.90;99.90
55560;DHT22;41414;53.250;6.514;2022-12-29T17:05:18;6.90;99.90
55560;DHT22;41414;53.250;6.514;2022-12-29T17:07:44;6.90;99.90
55560;DHT22;41414;53.250;6.514;2022-12-29T17:10:11;6.90;99.90
55560;DHT22;41414;53.250;6.514;2022-12-29T17:12:41;6.90;99.90
55560;DHT22;41414;53.250;6.514;2022-12-29T17:15:14;6.80;99.90
55560;DHT22;41414;53.250;6.514;2022-12-29T17:17:43;6.90;99.90
55560;DHT22;41414;53.250;6.514;2022-12-29T17:20:24;6.90;99.90
55560;DHT22;41414;53.250;6.514;2022-12-29T17:22:51;6.90;99.90
55560;DHT22;41414;53.250;6.514;2022-12-29T17:25:22;7.00;99.90
55560;DHT22;41414;53.250;6.514;2022-12-29T17:27:52;7.00;99.90
55560;DHT22;41414;53.250;6.514;2022-12-29T17:30:21;7.10;99.90
55560;DHT22;41414;53.250;6.514;2022-12-29T17:32:51;7.10;99.90
55560;DHT22;41414;53.250;6.514;2022-12-29T17:35:19;7.20;99.90
55560;DHT22;41414;53.250;6.514;2022-12-29T17:37:46;7.30;99.90
55560;DHT22;41414;53.250;6.514;2022-12-29T17:40:16;7.30;99.90
55560;DHT22;41414;53.250;6.514;2022-12-29T17:42:44;7.40;99.90